Time;durP1;ratioP1;P1;durP2;ratioP2;P2;SDS_P1;SDS_P2;PMS_P1;PMS_P2;Temp;Humidity;BMP_temperature;BMP_pressure;BME280_temperature;BME280_humidity;BME280_pressure;Samples;Min_cycle;Max_cycle;Signal;HPM_P1;HPM_P2
2022/08/05 00:01:16;;;;;;;5.45;2.42;;;;;;;;;;5073454;28;20040;-76
2022/08/05 00:03:42;;;;;;;7.22;2.85;;;;;;;;;;5073605;28;20046;-76
2022/08/05 00:06:08;;;;;;;7.47;3.00;;;;;;;;;;5073741;28;20071;-76
2022/08/05 00:08:35;;;;;;;8.10;2.60;;;;;;;;;;5073385;28;20043;-76
2022/08/05 00:11:02;;;;;;;5.60;2.22;;;;;;;;;;5073421;28;20519;-76
2022/08/05 00:13:30;;;;;;;6.55;2.88;;;;;;;;;;5072215;28;20040;-76
2022/08/05 00:15:56;;;;;;;6.45;2.75;;;;;;;;;;5073745;28;20046;-76
2022/08/05 00:18:22;;;;;;;5.90;2.33;;;;;;;;;;5056664;28;20043;-76
2022/08/05 00:20:48;;;;;;;6.53;2.65;;;;;;;;;;5073733;28;20036;-75
2022/08/05 00:23:14;;;;;;;6.55;2.85;;;;;;;;;;5072956;28;20044;-76
2022/08/05 00:25:40;;;;;;;7.20;3.17;;;;;;;;;;5074812;28;20036;-76
2022/08/05 00:28:06;;;;;;;10.90;2.85;;;;;;;;;;5067679;28;20060;-76
2022/08/05 00:30:32;;;;;;;7.28;2.60;;;;;;;;;;5076871;28;20032;-76
2022/08/05 00:32:58;;;;;;;10.15;3.30;;;;;;;;;;5060433;28;20122;-76
2022/08/05 00:35:24;;;;;;;9.40;2.97;;;;;;;;;;5094993;28;20043;-76
2022/08/05 00:37:50;;;;;;;7.95;2.53;;;;;;;;;;5070785;28;20075;-76
2022/08/05 00:40:17;;;;;;;5.80;2.20;;;;;;;;;;5075058;28;20489;-76
2022/08/05 00:42:43;;;;;;;8.63;2.70;;;;;;;;;;5076927;28;20089;-76
2022/08/05 00:45:09;;;;;;;5.43;2.67;;;;;;;;;;5094875;28;20044;-76
2022/08/05 00:47:35;;;;;;;9.15;2.97;;;;;;;;;;5077024;28;20492;-76
2022/08/05 00:50:01;;;;;;;7.43;3.05;;;;;;;;;;5077138;28;20036;-76
2022/08/05 00:52:27;;;;;;;8.77;2.92;;;;;;;;;;5059974;28;20072;-76
2022/08/05 00:54:54;;;;;;;11.07;3.20;;;;;;;;;;5059975;28;20073;-77
2022/08/05 00:57:20;;;;;;;6.28;3.00;;;;;;;;;;5076862;28;20043;-76
2022/08/05 00:59:46;;;;;;;6.82;3.05;;;;;;;;;;5076501;28;20044;-76
2022/08/05 01:02:12;;;;;;;4.75;2.70;;;;;;;;;;5076574;28;20048;-76
2022/08/05 01:04:38;;;;;;;8.07;3.00;;;;;;;;;;5076046;28;20165;-76
2022/08/05 01:07:04;;;;;;;7.20;3.00;;;;;;;;;;5076700;28;20054;-76
2022/08/05 01:09:30;;;;;;;7.13;2.38;;;;;;;;;;5076306;28;20050;-76
2022/08/05 01:11:59;;;;;;;6.57;3.28;;;;;;;;;;5076490;28;20116;-76
2022/08/05 01:14:34;;;;;;;9.55;3.20;;;;;;;;;;5076534;28;20564;-76
2022/08/05 01:17:15;;;;;;;7.70;2.90;;;;;;;;;;5072990;28;20044;-76
2022/08/05 01:19:52;;;;;;;8.65;2.60;;;;;;;;;;5076429;28;20042;-76
2022/08/05 01:22:29;;;;;;;6.80;2.60;;;;;;;;;;5073058;28;20041;-76
2022/08/05 01:24:55;;;;;;;6.28;2.72;;;;;;;;;;5072196;28;20051;-76
2022/08/05 01:27:31;;;;;;;6.70;3.80;;;;;;;;;;5080400;28;20140;-75
2022/08/05 01:29:59;;;;;;;5.80;3.60;;;;;;;;;;5076481;28;20051;-76
2022/08/05 01:32:26;;;;;;;5.88;3.05;;;;;;;;;;5076580;28;20040;-76
2022/08/05 01:35:05;;;;;;;7.18;2.80;;;;;;;;;;5076097;28;20469;-76
2022/08/05 01:37:41;;;;;;;7.07;3.20;;;;;;;;;;5054026;28;20036;-76
2022/08/05 01:40:08;;;;;;;6.28;3.45;;;;;;;;;;5050605;28;20068;-76
2022/08/05 01:42:36;;;;;;;6.75;2.92;;;;;;;;;;5073515;28;20423;-76
2022/08/05 01:45:03;;;;;;;8.15;3.40;;;;;;;;;;5059458;28;20055;-76
2022/08/05 01:47:30;;;;;;;9.48;3.40;;;;;;;;;;5075439;28;20032;-76
2022/08/05 01:49:57;;;;;;;5.40;2.78;;;;;;;;;;5075907;28;20109;-76
2022/08/05 01:52:24;;;;;;;9.80;3.30;;;;;;;;;;5093976;28;20040;-76
2022/08/05 01:54:55;;;;;;;5.55;2.60;;;;;;;;;;5075219;28;20075;-76
2022/08/05 01:57:26;;;;;;;7.03;2.72;;;;;;;;;;5075267;28;20040;-76
2022/08/05 01:59:54;;;;;;;6.90;3.08;;;;;;;;;;5075653;28;20569;-76
2022/08/05 02:02:21;;;;;;;6.65;3.25;;;;;;;;;;5066979;28;20049;-75
2022/08/05 02:04:47;;;;;;;5.50;2.50;;;;;;;;;;5084070;28;20040;-76
2022/08/05 02:07:14;;;;;;;4.22;2.35;;;;;;;;;;5050453;28;20046;-75
2022/08/05 02:09:40;;;;;;;4.32;2.40;;;;;;;;;;5053128;28;20072;-76
2022/08/05 02:12:08;;;;;;;6.70;3.00;;;;;;;;;;5067353;28;20441;-76
2022/08/05 02:15:03;;;;;;;6.47;2.53;;;;;;;;;;5079255;28;20043;-75
2022/08/05 02:17:31;;;;;;;4.97;2.65;;;;;;;;;;5052859;28;20048;-76
2022/08/05 02:20:00;;;;;;;7.38;2.88;;;;;;;;;;5064947;28;20080;-76
2022/08/05 02:22:26;;;;;;;4.70;2.60;;;;;;;;;;5065015;28;20122;-76
2022/08/05 02:24:53;;;;;;;8.00;2.80;;;;;;;;;;5051083;28;20040;-76
2022/08/05 02:27:21;;;;;;;6.07;2.97;;;;;;;;;;5090977;28;20101;-76
2022/08/05 02:29:47;;;;;;;7.47;2.67;;;;;;;;;;5064281;28;20048;-76
2022/08/05 02:32:16;;;;;;;8.68;2.78;;;;;;;;;;5055143;28;20090;-76
2022/08/05 02:34:43;;;;;;;7.28;2.92;;;;;;;;;;5056208;28;20511;-75
2022/08/05 02:37:09;;;;;;;6.20;2.70;;;;;;;;;;5066113;28;20059;-75
2022/08/05 02:39:37;;;;;;;10.13;3.00;;;;;;;;;;5060564;28;20054;-76
2022/08/05 02:42:04;;;;;;;5.75;2.92;;;;;;;;;;5039266;28;20407;-76
2022/08/05 02:44:32;;;;;;;7.22;3.25;;;;;;;;;;5055242;28;20378;-75
2022/08/05 02:46:58;;;;;;;6.68;3.40;;;;;;;;;;5054669;28;20037;-76
2022/08/05 02:49:26;;;;;;;8.43;3.70;;;;;;;;;;5059920;28;20028;-76
2022/08/05 02:51:52;;;;;;;8.57;3.30;;;;;;;;;;5039210;28;20047;-76
2022/08/05 02:54:19;;;;;;;7.10;3.33;;;;;;;;;;5055153;28;20489;-76
2022/08/05 02:56:46;;;;;;;6.60;3.55;;;;;;;;;;5057645;28;20473;-76
2022/08/05 02:59:12;;;;;;;6.95;4.00;;;;;;;;;;5066056;28;20495;-76
2022/08/05 03:01:40;;;;;;;5.32;3.53;;;;;;;;;;5074201;28;20037;-76
2022/08/05 03:04:07;;;;;;;6.55;3.80;;;;;;;;;;5072399;28;20119;-76
2022/08/05 03:06:34;;;;;;;9.85;4.10;;;;;;;;;;5038704;28;20037;-76
2022/08/05 03:09:00;;;;;;;8.27;3.88;;;;;;;;;;5054725;28;20425;-76
2022/08/05 03:11:27;;;;;;;9.00;4.25;;;;;;;;;;5021492;28;20071;-76
2022/08/05 03:13:53;;;;;;;5.30;4.55;;;;;;;;;;5054469;28;20051;-76
2022/08/05 03:16:20;;;;;;;7.07;4.50;;;;;;;;;;5059916;28;20130;-76
2022/08/05 03:18:46;;;;;;;8.50;4.70;;;;;;;;;;5057473;28;20048;-76
2022/08/05 03:21:12;;;;;;;8.45;5.03;;;;;;;;;;5067462;28;20481;-76
2022/08/05 03:23:40;;;;;;;6.15;4.78;;;;;;;;;;5073594;28;20455;-76
2022/08/05 03:26:06;;;;;;;10.77;5.00;;;;;;;;;;5049619;28;20140;-76
2022/08/05 03:28:32;;;;;;;7.82;4.78;;;;;;;;;;5066230;28;20054;-76
2022/08/05 03:30:59;;;;;;;7.22;5.30;;;;;;;;;;5073959;28;20040;-76
2022/08/05 03:33:27;;;;;;;7.13;5.22;;;;;;;;;;5057097;28;20044;-76
2022/08/05 03:35:55;;;;;;;7.90;5.20;;;;;;;;;;5092151;28;20082;-76
2022/08/05 03:38:21;;;;;;;9.60;5.40;;;;;;;;;;5074094;28;20496;-76
2022/08/05 03:40:47;;;;;;;10.52;5.70;;;;;;;;;;5073662;28;20515;-76
2022/08/05 03:43:14;;;;;;;8.45;5.57;;;;;;;;;;5073876;28;20561;-76
2022/08/05 03:45:40;;;;;;;7.63;5.65;;;;;;;;;;5074149;28;20510;-76
2022/08/05 03:48:06;;;;;;;6.90;5.35;;;;;;;;;;5073214;28;20069;-76
2022/08/05 03:50:42;;;;;;;7.82;5.50;;;;;;;;;;5074051;28;20043;-76
2022/08/05 03:53:10;;;;;;;8.73;5.30;;;;;;;;;;5073352;28;20401;-76
2022/08/05 03:55:39;;;;;;;7.47;5.10;;;;;;;;;;5073534;28;20085;-76
2022/08/05 03:58:09;;;;;;;7.18;4.60;;;;;;;;;;5057114;28;20501;-76
2022/08/05 04:00:36;;;;;;;5.57;4.50;;;;;;;;;;5075870;28;20036;-76
2022/08/05 04:03:02;;;;;;;8.10;5.40;;;;;;;;;;5072639;28;20036;-76
2022/08/05 04:05:32;;;;;;;6.35;5.05;;;;;;;;;;5100574;28;20386;-76
2022/08/05 04:08:00;;;;;;;8.80;5.18;;;;;;;;;;5074049;28;20082;-76
2022/08/05 04:10:27;;;;;;;8.65;5.72;;;;;;;;;;5079030;28;20044;-76
2022/08/05 04:12:53;;;;;;;7.82;5.28;;;;;;;;;;5071500;28;20553;-76
2022/08/05 04:15:19;;;;;;;8.13;5.30;;;;;;;;;;5071026;28;20058;-75
2022/08/05 04:17:45;;;;;;;9.77;4.90;;;;;;;;;;5073390;28;20028;-76
2022/08/05 04:20:21;;;;;;;10.98;5.90;;;;;;;;;;5061637;28;20116;-76
2022/08/05 04:22:47;;;;;;;9.07;4.88;;;;;;;;;;5077907;28;20047;-76
2022/08/05 04:25:13;;;;;;;9.15;5.43;;;;;;;;;;5071818;28;20047;-76
2022/08/05 04:27:39;;;;;;;8.90;5.78;;;;;;;;;;5097337;28;20799;-75
2022/08/05 04:30:06;;;;;;;10.55;6.10;;;;;;;;;;5080919;28;20048;-75
2022/08/05 04:32:32;;;;;;;8.10;5.70;;;;;;;;;;5094411;28;20051;-75
2022/08/05 04:34:58;;;;;;;9.65;5.93;;;;;;;;;;5077281;28;20036;-76
2022/08/05 04:37:24;;;;;;;8.43;5.90;;;;;;;;;;5060554;28;20051;-75
2022/08/05 04:39:50;;;;;;;9.82;5.82;;;;;;;;;;5060567;28;20059;-76
2022/08/05 04:42:16;;;;;;;9.70;5.63;;;;;;;;;;5060735;28;20488;-75
2022/08/05 04:44:42;;;;;;;9.02;5.60;;;;;;;;;;5077280;28;20104;-75
2022/08/05 04:47:08;;;;;;;10.32;5.47;;;;;;;;;;5059557;28;20036;-76
2022/08/05 04:49:34;;;;;;;8.70;5.72;;;;;;;;;;5060576;28;20121;-76
2022/08/05 04:52:00;;;;;;;12.63;6.18;;;;;;;;;;5076526;28;20040;-75
2022/08/05 04:54:26;;;;;;;10.30;6.07;;;;;;;;;;5054198;28;20040;-76
2022/08/05 04:56:53;;;;;;;9.63;5.75;;;;;;;;;;5079576;28;20594;-76
2022/08/05 04:59:21;;;;;;;9.88;5.68;;;;;;;;;;5063302;28;20500;-76
2022/08/05 05:01:47;;;;;;;8.63;5.85;;;;;;;;;;5090502;28;20050;-75
2022/08/05 05:04:14;;;;;;;7.40;5.75;;;;;;;;;;5079555;28;20446;-76
2022/08/05 05:06:40;;;;;;;8.23;6.18;;;;;;;;;;5101776;28;20603;-76
2022/08/05 05:09:06;;;;;;;9.50;5.97;;;;;;;;;;5080717;28;20384;-76
2022/08/05 05:11:32;;;;;;;7.72;6.35;;;;;;;;;;5066174;28;20116;-76
2022/08/05 05:13:58;;;;;;;10.93;6.32;;;;;;;;;;5084605;28;20076;-75
2022/08/05 05:16:24;;;;;;;9.60;6.28;;;;;;;;;;5078281;28;20393;-76
2022/08/05 05:18:50;;;;;;;10.32;5.70;;;;;;;;;;5059004;28;20039;-76
2022/08/05 05:21:16;;;;;;;10.75;6.43;;;;;;;;;;5081052;28;20393;-76
2022/08/05 05:23:42;;;;;;;9.55;6.85;;;;;;;;;;5077753;28;20395;-75
2022/08/05 05:26:09;;;;;;;7.95;5.55;;;;;;;;;;5093021;28;20036;-75
2022/08/05 05:28:35;;;;;;;9.38;6.32;;;;;;;;;;5096379;28;20117;-76
2022/08/05 05:31:01;;;;;;;7.40;6.10;;;;;;;;;;5059287;28;20036;-75
2022/08/05 05:33:27;;;;;;;9.35;5.60;;;;;;;;;;5076070;28;20067;-75
2022/08/05 05:35:53;;;;;;;5.32;3.90;;;;;;;;;;5075997;28;20048;-75
2022/08/05 05:38:19;;;;;;;9.80;4.90;;;;;;;;;;5076145;28;20307;-75
2022/08/05 05:40:45;;;;;;;6.78;4.43;;;;;;;;;;5059333;28;20123;-75
2022/08/05 05:43:11;;;;;;;7.72;4.20;;;;;;;;;;5059414;28;20040;-75
2022/08/05 05:45:37;;;;;;;7.18;4.47;;;;;;;;;;5076444;28;20393;-75
2022/08/05 05:48:07;;;;;;;7.70;4.22;;;;;;;;;;5058171;28;20396;-75
2022/08/05 05:50:35;;;;;;;5.72;3.67;;;;;;;;;;5059409;28;20552;-75
2022/08/05 05:53:01;;;;;;;7.50;4.40;;;;;;;;;;5075095;28;20128;-75
2022/08/05 05:55:27;;;;;;;7.85;3.47;;;;;;;;;;5059128;28;20044;-75
2022/08/05 05:57:53;;;;;;;8.85;4.15;;;;;;;;;;5075442;28;20093;-76
2022/08/05 06:00:21;;;;;;;6.03;3.53;;;;;;;;;;5075397;28;20040;-76
2022/08/05 06:02:48;;;;;;;6.40;3.58;;;;;;;;;;5075607;28;20055;-76
2022/08/05 06:05:14;;;;;;;4.90;3.22;;;;;;;;;;5074600;28;20046;-76
2022/08/05 06:07:41;;;;;;;8.05;2.97;;;;;;;;;;5074477;28;20047;-77
2022/08/05 06:10:08;;;;;;;5.07;2.30;;;;;;;;;;5070166;28;20043;-77
2022/08/05 06:12:35;;;;;;;4.57;2.63;;;;;;;;;;5075853;28;20099;-76
2022/08/05 06:15:01;;;;;;;3.63;2.00;;;;;;;;;;5075282;28;20089;-77
2022/08/05 06:17:28;;;;;;;5.45;2.38;;;;;;;;;;5075469;28;20048;-77
2022/08/05 06:19:54;;;;;;;3.83;2.20;;;;;;;;;;5074801;28;20496;-76
2022/08/05 06:22:24;;;;;;;4.00;2.00;;;;;;;;;;5074875;28;20062;-76
2022/08/05 06:24:50;;;;;;;4.55;1.75;;;;;;;;;;5067671;28;20471;-77
2022/08/05 06:27:16;;;;;;;3.88;1.42;;;;;;;;;;5073203;28;20108;-77
2022/08/05 06:29:42;;;;;;;4.90;1.73;;;;;;;;;;5065003;28;20147;-76
2022/08/05 06:32:09;;;;;;;2.97;1.27;;;;;;;;;;5058654;28;20509;-77
2022/08/05 06:34:35;;;;;;;4.60;1.30;;;;;;;;;;5075453;28;20043;-77
2022/08/05 06:37:01;;;;;;;3.42;1.17;;;;;;;;;;5058951;28;20032;-77
2022/08/05 06:39:27;;;;;;;2.80;1.20;;;;;;;;;;5043283;28;20062;-77
2022/08/05 06:41:53;;;;;;;2.90;1.10;;;;;;;;;;5055765;28;20028;-77
2022/08/05 06:44:19;;;;;;;3.40;1.23;;;;;;;;;;5072071;28;20516;-77
2022/08/05 06:46:45;;;;;;;3.38;1.10;;;;;;;;;;5047750;28;20028;-77
2022/08/05 06:49:11;;;;;;;4.50;1.48;;;;;;;;;;5044468;28;20044;-76
2022/08/05 06:51:38;;;;;;;3.33;1.27;;;;;;;;;;5072128;28;20037;-77
2022/08/05 06:54:04;;;;;;;5.15;1.50;;;;;;;;;;5077725;28;20044;-76
2022/08/05 06:56:31;;;;;;;5.20;1.63;;;;;;;;;;5068827;28;20400;-77
2022/08/05 06:58:57;;;;;;;4.22;1.40;;;;;;;;;;5073288;28;20063;-77
2022/08/05 07:01:23;;;;;;;3.10;1.40;;;;;;;;;;5082345;28;20044;-76
2022/08/05 07:03:49;;;;;;;3.85;1.25;;;;;;;;;;5076653;28;20415;-76
2022/08/05 07:06:16;;;;;;;5.20;1.40;;;;;;;;;;5077605;28;20037;-76
2022/08/05 07:08:42;;;;;;;4.05;1.30;;;;;;;;;;5087980;28;20040;-77
2022/08/05 07:11:09;;;;;;;3.20;1.20;;;;;;;;;;5068034;28;20036;-76
2022/08/05 07:19:04;;;;;;;2.57;0.90;;;;;;;;;;5072363;28;20039;-77
2022/08/05 07:21:30;;;;;;;3.47;1.10;;;;;;;;;;5077876;28;20791;-77
2022/08/05 07:23:56;;;;;;;4.43;1.00;;;;;;;;;;5082202;28;20093;-77
2022/08/05 07:26:22;;;;;;;4.25;1.00;;;;;;;;;;5088672;28;20067;-78
2022/08/05 07:28:52;;;;;;;3.67;0.98;;;;;;;;;;5059521;28;20058;-78
2022/08/05 07:31:18;;;;;;;2.65;0.82;;;;;;;;;;5073826;28;20071;-78
2022/08/05 07:33:44;;;;;;;2.15;0.70;;;;;;;;;;5073566;28;20032;-77
2022/08/05 07:36:10;;;;;;;1.65;0.73;;;;;;;;;;5072414;28;20480;-79
2022/08/05 07:38:37;;;;;;;2.70;0.80;;;;;;;;;;5074593;28;20404;-78
2022/08/05 07:41:04;;;;;;;3.50;0.73;;;;;;;;;;5057281;28;20889;-78
2022/08/05 07:43:30;;;;;;;4.38;0.85;;;;;;;;;;5057319;28;20451;-79
2022/08/05 07:45:56;;;;;;;4.25;1.05;;;;;;;;;;5073640;28;20032;-78
2022/08/05 07:48:22;;;;;;;3.65;0.88;;;;;;;;;;5074259;28;20036;-78
2022/08/05 07:50:48;;;;;;;2.53;0.80;;;;;;;;;;5072071;28;20115;-79
2022/08/05 07:53:14;;;;;;;1.90;0.60;;;;;;;;;;5073826;28;20047;-78
2022/08/05 07:55:40;;;;;;;2.67;0.77;;;;;;;;;;5073653;28;20086;-78
2022/08/05 07:58:06;;;;;;;2.00;0.80;;;;;;;;;;5092486;28;20033;-77
2022/08/05 08:00:32;;;;;;;3.20;0.85;;;;;;;;;;5072936;28;20048;-77
2022/08/05 08:02:59;;;;;;;2.00;0.60;;;;;;;;;;5072600;28;20042;-79
2022/08/05 08:05:26;;;;;;;3.35;0.70;;;;;;;;;;5070275;28;20119;-79
2022/08/05 08:07:54;;;;;;;2.33;0.70;;;;;;;;;;5072355;28;20435;-82
2022/08/05 08:10:20;;;;;;;2.13;0.68;;;;;;;;;;5087018;28;20040;-84
2022/08/05 08:12:47;;;;;;;1.92;0.60;;;;;;;;;;5072961;28;20032;-78
2022/08/05 08:15:13;;;;;;;3.83;0.80;;;;;;;;;;5073539;28;20510;-78
2022/08/05 08:17:39;;;;;;;2.10;0.60;;;;;;;;;;5057266;28;20404;-79
2022/08/05 08:20:05;;;;;;;3.40;0.70;;;;;;;;;;5074087;28;20108;-76
2022/08/05 08:22:31;;;;;;;1.45;0.60;;;;;;;;;;5073303;28;20052;-80
2022/08/05 08:24:57;;;;;;;2.03;0.60;;;;;;;;;;5063287;28;20037;-77
2022/08/05 08:27:24;;;;;;;1.70;0.68;;;;;;;;;;5071579;28;20032;-76
2022/08/05 08:29:50;;;;;;;1.67;0.75;;;;;;;;;;5073855;28;20036;-77
2022/08/05 08:32:16;;;;;;;2.40;0.60;;;;;;;;;;5091897;28;20048;-77
2022/08/05 08:34:42;;;;;;;3.10;0.73;;;;;;;;;;5074730;28;20044;-78
2022/08/05 08:37:08;;;;;;;5.07;0.60;;;;;;;;;;5073207;28;20487;-77
2022/08/05 08:39:34;;;;;;;1.83;0.50;;;;;;;;;;5091320;28;20484;-77
2022/08/05 08:42:01;;;;;;;3.55;0.88;;;;;;;;;;5073608;28;20075;-77
2022/08/05 08:44:31;;;;;;;4.63;0.60;;;;;;;;;;5072599;28;20040;-77
2022/08/05 08:46:57;;;;;;;1.58;0.52;;;;;;;;;;5065398;28;20493;-78
2022/08/05 08:49:24;;;;;;;3.70;0.80;;;;;;;;;;5075570;28;20036;-77
2022/08/05 08:52:10;;;;;;;3.47;0.80;;;;;;;;;;5044967;28;20093;-79
2022/08/05 08:54:36;;;;;;;2.88;0.80;;;;;;;;;;5084361;28;20109;-78
2022/08/05 08:57:02;;;;;;;2.83;0.88;;;;;;;;;;5085373;28;20051;-76
2022/08/05 08:59:28;;;;;;;3.00;0.70;;;;;;;;;;5072590;28;20043;-77
2022/08/05 09:01:54;;;;;;;2.22;0.70;;;;;;;;;;5096849;28;20440;-77
2022/08/05 09:04:21;;;;;;;3.40;0.68;;;;;;;;;;5084259;28;20036;-77
2022/08/05 09:06:47;;;;;;;3.00;0.70;;;;;;;;;;5091867;28;20036;-76
2022/08/05 09:09:15;;;;;;;3.05;0.80;;;;;;;;;;5086981;28;20036;-74
2022/08/05 09:11:41;;;;;;;5.20;0.90;;;;;;;;;;5049742;28;20035;-76
2022/08/05 09:14:07;;;;;;;2.97;0.50;;;;;;;;;;5069045;28;20036;-76
2022/08/05 09:16:33;;;;;;;3.42;0.55;;;;;;;;;;5090501;28;20433;-75
2022/08/05 09:18:59;;;;;;;2.83;0.60;;;;;;;;;;5082770;28;20040;-75
2022/08/05 09:21:27;;;;;;;1.30;0.50;;;;;;;;;;5082754;28;20047;-75
2022/08/05 09:24:11;;;;;;;1.90;0.60;;;;;;;;;;5077468;28;20043;-76
2022/08/05 09:26:38;;;;;;;2.55;0.50;;;;;;;;;;5076160;28;20051;-75
2022/08/05 09:29:07;;;;;;;1.17;0.50;;;;;;;;;;5072276;28;20175;-75
2022/08/05 09:31:34;;;;;;;1.65;0.57;;;;;;;;;;5065802;28;20078;-75
2022/08/05 09:34:04;;;;;;;2.65;0.63;;;;;;;;;;5088336;28;20370;-76
2022/08/05 09:36:44;;;;;;;2.88;0.50;;;;;;;;;;5080238;28;20149;-76
2022/08/05 09:39:11;;;;;;;6.68;0.70;;;;;;;;;;5078904;28;20071;-76
2022/08/05 09:41:56;;;;;;;1.80;0.60;;;;;;;;;;5076628;28;20044;-76
2022/08/05 09:44:32;;;;;;;2.58;0.60;;;;;;;;;;5084180;28;20451;-76
2022/08/05 09:47:09;;;;;;;1.65;0.77;;;;;;;;;;5070408;28;20181;-75
2022/08/05 09:49:39;;;;;;;1.95;0.30;;;;;;;;;;5084612;28;20042;-75
2022/08/05 09:52:17;;;;;;;1.48;0.40;;;;;;;;;;5074255;28;20040;-75
2022/08/05 09:54:57;;;;;;;4.10;0.50;;;;;;;;;;5079708;28;20075;-76
2022/08/05 09:57:29;;;;;;;2.10;0.40;;;;;;;;;;5065092;28;20064;-75
2022/08/05 10:00:05;;;;;;;3.28;0.60;;;;;;;;;;5085843;28;20522;-74
2022/08/05 10:02:32;;;;;;;2.00;0.60;;;;;;;;;;5089304;28;20485;-75
2022/08/05 10:05:03;;;;;;;2.92;0.40;;;;;;;;;;5072313;28;20085;-74
2022/08/05 10:07:50;;;;;;;2.15;0.43;;;;;;;;;;5071504;28;20574;-75
2022/08/05 10:10:16;;;;;;;1.90;0.40;;;;;;;;;;5071827;28;20080;-75
2022/08/05 10:12:43;;;;;;;2.65;0.45;;;;;;;;;;5070376;28;20079;-74
2022/08/05 10:15:17;;;;;;;2.05;0.30;;;;;;;;;;5077716;28;20401;-75
2022/08/05 10:17:43;;;;;;;2.45;0.40;;;;;;;;;;5096856;28;20055;-75
2022/08/05 10:20:11;;;;;;;2.20;0.30;;;;;;;;;;5052257;28;20504;-73
2022/08/05 10:22:40;;;;;;;1.58;0.43;;;;;;;;;;5073835;28;20126;-74
2022/08/05 10:25:06;;;;;;;4.03;0.60;;;;;;;;;;5081585;28;20064;-76
2022/08/05 10:27:33;;;;;;;1.20;0.40;;;;;;;;;;5069922;28;20105;-74
2022/08/05 10:29:59;;;;;;;2.03;0.38;;;;;;;;;;5062785;28;20052;-75
2022/08/05 10:32:25;;;;;;;2.00;0.30;;;;;;;;;;5070179;28;20040;-74
2022/08/05 10:34:52;;;;;;;1.70;0.50;;;;;;;;;;5062789;28;20039;-75
2022/08/05 10:37:18;;;;;;;1.00;0.40;;;;;;;;;;5078019;28;20117;-74
2022/08/05 10:39:45;;;;;;;1.55;0.30;;;;;;;;;;5084875;28;20046;-74
2022/08/05 10:42:12;;;;;;;1.83;0.60;;;;;;;;;;5077381;28;20043;-74
2022/08/05 10:44:38;;;;;;;0.82;0.30;;;;;;;;;;5082744;28;20042;-73
2022/08/05 10:47:11;;;;;;;1.48;0.38;;;;;;;;;;5079237;28;20041;-77
2022/08/05 10:49:57;;;;;;;1.10;0.43;;;;;;;;;;5073225;28;20151;-73
2022/08/05 10:52:38;;;;;;;1.95;0.30;;;;;;;;;;5096456;28;20047;-77
2022/08/05 10:55:05;;;;;;;1.15;0.30;;;;;;;;;;5075199;28;20096;-75
2022/08/05 10:57:32;;;;;;;0.70;0.32;;;;;;;;;;5075749;28;20537;-74
2022/08/05 11:00:09;;;;;;;1.70;0.40;;;;;;;;;;5072292;28;20079;-73
2022/08/05 11:02:35;;;;;;;1.10;0.30;;;;;;;;;;5060549;28;20079;-75
2022/08/05 11:05:08;;;;;;;1.33;0.40;;;;;;;;;;5083829;28;20035;-74
2022/08/05 11:07:34;;;;;;;1.52;0.30;;;;;;;;;;5040039;28;20052;-76
2022/08/05 11:10:02;;;;;;;1.55;0.30;;;;;;;;;;5073262;28;20440;-77
2022/08/05 11:12:39;;;;;;;2.80;0.40;;;;;;;;;;5069034;28;20086;-78
2022/08/05 11:15:10;;;;;;;0.98;0.40;;;;;;;;;;5060196;28;20062;-78
2022/08/05 11:17:37;;;;;;;0.82;0.32;;;;;;;;;;5073195;28;20094;-76
2022/08/05 11:20:04;;;;;;;2.08;0.40;;;;;;;;;;5080451;28;20036;-76
2022/08/05 11:22:47;;;;;;;2.00;0.40;;;;;;;;;;5085458;28;20134;-75
2022/08/05 11:25:32;;;;;;;3.13;1.00;;;;;;;;;;5075540;28;20115;-75
2022/08/05 11:28:11;;;;;;;1.00;0.40;;;;;;;;;;5093066;28;20564;-73
2022/08/05 11:30:55;;;;;;;2.15;0.45;;;;;;;;;;5060321;28;20185;-75
2022/08/05 11:33:36;;;;;;;1.52;0.43;;;;;;;;;;5083755;28;20082;-75
2022/08/05 11:36:09;;;;;;;2.13;0.40;;;;;;;;;;5075883;28;20040;-75
2022/08/05 11:38:38;;;;;;;2.10;0.50;;;;;;;;;;5057277;28;20032;-75
2022/08/05 11:41:08;;;;;;;1.27;0.40;;;;;;;;;;5074070;28;20327;-79
2022/08/05 11:43:34;;;;;;;1.50;0.40;;;;;;;;;;5074286;28;20036;-75
2022/08/05 11:46:01;;;;;;;1.95;0.45;;;;;;;;;;5056080;28;20084;-76
2022/08/05 11:48:28;;;;;;;2.60;0.50;;;;;;;;;;5073763;28;20063;-76
2022/08/05 11:50:54;;;;;;;4.18;0.38;;;;;;;;;;5057471;28;20106;-75
2022/08/05 11:53:22;;;;;;;2.38;0.43;;;;;;;;;;5059691;28;20044;-76
2022/08/05 11:55:58;;;;;;;2.20;0.43;;;;;;;;;;5073611;28;20453;-76
2022/08/05 11:58:25;;;;;;;0.85;0.30;;;;;;;;;;5073878;28;20035;-77
2022/08/05 12:01:00;;;;;;;1.98;0.50;;;;;;;;;;5073647;28;20036;-76
2022/08/05 12:03:26;;;;;;;1.45;0.50;;;;;;;;;;5074281;28;20078;-76
2022/08/05 12:05:53;;;;;;;2.47;0.70;;;;;;;;;;5073694;28;20044;-75
2022/08/05 12:08:20;;;;;;;1.65;0.40;;;;;;;;;;5074162;28;20051;-77
2022/08/05 12:10:47;;;;;;;2.40;0.63;;;;;;;;;;5073883;28;20563;-75
2022/08/05 12:13:15;;;;;;;1.58;0.40;;;;;;;;;;5074162;28;20394;-77
2022/08/05 12:15:45;;;;;;;2.35;0.40;;;;;;;;;;5057071;28;20032;-77
2022/08/05 12:18:16;;;;;;;1.70;0.52;;;;;;;;;;5073827;28;20048;-77
2022/08/05 12:20:42;;;;;;;2.42;0.50;;;;;;;;;;5092153;28;20032;-77
2022/08/05 12:23:09;;;;;;;1.48;0.40;;;;;;;;;;5078125;28;20465;-76
2022/08/05 12:25:54;;;;;;;2.30;0.60;;;;;;;;;;5046891;28;20046;-75
2022/08/05 12:28:33;;;;;;;6.68;0.90;;;;;;;;;;5062965;28;20048;-76
2022/08/05 12:31:00;;;;;;;3.83;0.40;;;;;;;;;;5077958;28;20540;-76
2022/08/05 12:33:26;;;;;;;2.50;0.63;;;;;;;;;;5077658;28;20115;-76
2022/08/05 12:35:53;;;;;;;1.42;0.40;;;;;;;;;;5078259;28;20084;-77
2022/08/05 12:38:20;;;;;;;2.08;0.50;;;;;;;;;;5077510;28;20115;-76
2022/08/05 12:40:46;;;;;;;0.88;0.30;;;;;;;;;;5077297;28;20032;-76
2022/08/05 12:43:12;;;;;;;1.30;0.30;;;;;;;;;;5077774;28;20400;-76
2022/08/05 12:45:49;;;;;;;2.28;0.45;;;;;;;;;;5077516;28;20040;-77
2022/08/05 12:48:15;;;;;;;1.58;0.50;;;;;;;;;;5078544;28;20491;-73
2022/08/05 12:50:42;;;;;;;3.08;0.50;;;;;;;;;;5077894;28;20035;-74
2022/08/05 12:53:08;;;;;;;2.92;0.50;;;;;;;;;;5077441;28;20471;-74
2022/08/05 12:55:34;;;;;;;1.95;0.60;;;;;;;;;;5062840;28;20042;-76
2022/08/05 12:58:00;;;;;;;2.90;0.60;;;;;;;;;;5060552;28;20044;-75
2022/08/05 13:00:32;;;;;;;1.83;0.50;;;;;;;;;;5060762;28;20081;-73
2022/08/05 13:02:58;;;;;;;1.73;0.50;;;;;;;;;;5060632;28;20481;-75
2022/08/05 13:05:25;;;;;;;1.35;0.43;;;;;;;;;;5060626;28;20040;-74
2022/08/05 13:07:51;;;;;;;2.22;0.40;;;;;;;;;;5076850;28;20044;-73
2022/08/05 13:10:17;;;;;;;2.53;0.60;;;;;;;;;;5077153;28;20126;-72
2022/08/05 13:12:44;;;;;;;1.70;0.68;;;;;;;;;;5077086;28;20093;-73
2022/08/05 13:15:11;;;;;;;1.75;0.50;;;;;;;;;;5076722;28;20502;-73
2022/08/05 13:17:37;;;;;;;0.90;0.30;;;;;;;;;;5076910;28;20036;-73
2022/08/05 13:20:09;;;;;;;1.02;0.40;;;;;;;;;;5076365;28;20044;-71
2022/08/05 13:22:42;;;;;;;2.22;0.60;;;;;;;;;;5060394;28;20507;-74
2022/08/05 13:25:13;;;;;;;5.72;0.55;;;;;;;;;;5064393;28;20127;-73
2022/08/05 13:27:40;;;;;;;2.17;0.50;;;;;;;;;;5095081;28;20036;-75
2022/08/05 13:30:08;;;;;;;3.38;0.43;;;;;;;;;;5076264;28;20059;-73
2022/08/05 13:32:34;;;;;;;1.58;0.38;;;;;;;;;;5090110;28;20032;-73
2022/08/05 13:35:00;;;;;;;1.50;0.40;;;;;;;;;;5076450;28;20520;-72
2022/08/05 13:37:26;;;;;;;2.95;0.47;;;;;;;;;;5076816;28;20083;-73
2022/08/05 13:39:52;;;;;;;2.75;0.43;;;;;;;;;;5076910;28;20456;-74
2022/08/05 13:42:19;;;;;;;1.85;0.50;;;;;;;;;;5076763;28;20074;-74
2022/08/05 13:44:46;;;;;;;5.10;0.68;;;;;;;;;;5076312;28;20085;-76
2022/08/05 13:47:15;;;;;;;4.22;0.68;;;;;;;;;;5076249;28;20078;-77
2022/08/05 13:49:41;;;;;;;3.58;0.50;;;;;;;;;;5076470;28;20036;-75
2022/08/05 13:52:15;;;;;;;3.28;0.80;;;;;;;;;;5039485;28;20041;-72
2022/08/05 13:54:41;;;;;;;2.88;0.90;;;;;;;;;;5073306;28;20059;-73
2022/08/05 13:57:08;;;;;;;4.18;0.90;;;;;;;;;;5075857;28;20044;-72
2022/08/05 13:59:34;;;;;;;2.83;0.60;;;;;;;;;;5076286;28;20558;-74
2022/08/05 14:02:01;;;;;;;3.40;0.77;;;;;;;;;;5059212;28;20412;-72
2022/08/05 14:07:15;;;;;;;2.70;0.70;;;;;;;;;;5075910;28;20044;-73
2022/08/05 14:09:41;;;;;;;5.40;0.70;;;;;;;;;;5094439;28;20040;-76
2022/08/05 14:12:08;;;;;;;3.58;0.90;;;;;;;;;;5058965;28;20040;-74
2022/08/05 14:14:34;;;;;;;2.78;0.73;;;;;;;;;;5094216;28;20047;-76
2022/08/05 14:17:00;;;;;;;2.63;0.60;;;;;;;;;;5075442;28;20039;-74
2022/08/05 14:19:26;;;;;;;1.42;0.57;;;;;;;;;;5059099;28;20044;-74
2022/08/05 14:21:52;;;;;;;4.32;0.47;;;;;;;;;;5096776;28;20109;-76
2022/08/05 14:24:18;;;;;;;2.47;0.50;;;;;;;;;;5081644;28;20040;-75
2022/08/05 14:26:44;;;;;;;3.75;0.60;;;;;;;;;;5067016;28;20040;-73
2022/08/05 14:29:11;;;;;;;3.22;0.45;;;;;;;;;;5073313;28;20429;-75
2022/08/05 14:31:37;;;;;;;4.10;0.73;;;;;;;;;;5075294;28;20036;-74
2022/08/05 14:34:03;;;;;;;3.22;0.47;;;;;;;;;;5075218;28;20400;-73
2022/08/05 14:36:29;;;;;;;2.25;0.40;;;;;;;;;;5075401;28;20047;-71
2022/08/05 14:38:55;;;;;;;2.20;0.50;;;;;;;;;;5093624;28;20044;-73
2022/08/05 14:41:22;;;;;;;1.52;0.40;;;;;;;;;;5058563;28;20028;-72
2022/08/05 14:43:50;;;;;;;4.35;0.52;;;;;;;;;;5075380;28;20048;-76
2022/08/05 14:46:16;;;;;;;2.50;0.75;;;;;;;;;;5074839;28;20036;-75
2022/08/05 14:48:42;;;;;;;2.53;0.40;;;;;;;;;;5075459;28;20043;-74
2022/08/05 14:51:08;;;;;;;2.00;0.50;;;;;;;;;;5074742;28;20043;-72
2022/08/05 14:53:34;;;;;;;3.08;0.40;;;;;;;;;;5075263;28;20125;-73
2022/08/05 14:56:00;;;;;;;2.55;0.40;;;;;;;;;;5074954;28;20048;-73